Home   Weather   Hungary   Pécs   Past weeks
Flag for Hungary

Past Weather in Pécs, Hungary — Yesterday and Last 2 Weeks

Currently: 73 °F. Clear. (Weather station: Pecs / Pogany, Hungary). See more current weather

Past Weather in Pécs — Graph

°F

Pécs Temperature Yesterday

Maximum temperature yesterday: 91 °F (at 4:45 pm)
Minimum temperature yesterday: 72 °F (at 5:45 am)
Average temperature yesterday: 81 °F

High & Low Weather Summary for the Past Weeks

 TemperatureHumidityPressure
High97 °F (Jul 11, 3:45 pm)94% (Jul 14, 3:45 am)30.12 "Hg (Jul 14, 3:45 am)
Low57 °F (Jul 4, 4:45 am)28% (Jul 11, 3:45 pm)29.77 "Hg (Jul 4, 2:15 am)
Average82 °F55%29.94 "Hg
* Reported Jul 4 2:15 am — Jul 19 2:45 am, Pécs. Weather by CustomWeather, © 2024

Note: Actual official high and low records may vary slightly from our data, if they occured in-between our weather recording intervals... More about our weather records

Pécs Weather History for the Previous 24 Hours

Scroll right to see more
 ConditionsComfort  
Time TempWeatherWind HumidityBarometerVisibility
2:45 am
Fri, Jul 19
75 °FClear.8 mph74%30.07 "Hg10 mi
2:15 am77 °FClear.7 mph69%30.07 "Hg10 mi
1:45 am77 °FPassing clouds.5 mph69%30.07 "HgN/A
1:15 am77 °FClear.7 mph74%30.07 "Hg10 mi
12:45 am77 °FClear.6 mph74%30.07 "Hg10 mi
11:45 pm
Thu, Jul 18
79 °FClear.6 mph70%30.07 "Hg10 mi
11:15 pm79 °FClear.6 mph70%30.07 "Hg10 mi
10:45 pm81 °FClear.6 mph66%30.07 "Hg10 mi
10:15 pm82 °FClear.6 mph62%30.07 "Hg10 mi
9:45 pm82 °FClear.5 mph62%30.07 "Hg10 mi
8:45 pm84 °FClear.5 mph58%30.09 "Hg10 mi
8:15 pm86 °FSunny.3 mph55%30.09 "Hg10 mi
7:45 pm86 °FSunny.5 mph55%30.07 "Hg10 mi
7:15 pm88 °FSunny.6 mph52%30.07 "Hg10 mi
6:45 pm90 °FSunny.8 mph49%30.07 "Hg10 mi
6:15 pm90 °FPassing clouds.8 mph46%30.07 "HgN/A
5:45 pm91 °FPassing clouds.7 mph44%30.04 "HgN/A
5:15 pm91 °FPassing clouds.7 mph41%30.07 "HgN/A
4:45 pm91 °FPassing clouds.8 mph41%30.07 "HgN/A
3:45 pm90 °FPassing clouds.7 mph46%30.07 "HgN/A
2:45 pm90 °FPassing clouds.7 mph46%30.09 "HgN/A
1:45 pm90 °FSunny.5 mph46%30.09 "Hg10 mi
1:15 pm90 °FSunny.5 mph43%30.09 "Hg10 mi
12:45 pm88 °FSunny.5 mph49%30.09 "Hg10 mi
12:15 pm88 °FSunny.6 mph49%30.09 "Hg10 mi
11:45 am86 °FPassing clouds.5 mph52%30.09 "HgN/A
11:15 am84 °FPassing clouds.5 mph55%30.12 "HgN/A
10:45 am84 °FSunny.5 mph55%30.12 "Hg10 mi
10:15 am82 °FSunny.5 mph55%30.12 "Hg10 mi
9:45 am82 °FPassing clouds.6 mph55%30.12 "HgN/A
8:45 am77 °FPassing clouds.7 mph61%30.12 "HgN/A
8:15 am77 °FPassing clouds.7 mph61%30.12 "HgN/A
7:45 am75 °FSunny.9 mph61%30.12 "Hg10 mi
7:15 am75 °FPassing clouds.8 mph61%30.09 "HgN/A
6:45 am73 °FPassing clouds.6 mph65%30.09 "HgN/A
6:15 am72 °FSunny.13 mph69%30.09 "Hg10 mi
5:45 am72 °FPassing clouds.8 mph69%30.09 "HgN/A
5:15 am73 °FPassing clouds.9 mph65%30.07 "HgN/A
4:45 am73 °FPassing clouds.13 mph65%30.07 "HgN/A
4:15 am73 °FClear.12 mph65%30.07 "Hg10 mi
Weather by CustomWeather, © 2024

See weather overview